الصفحة الرئيسية
METAR-TAF:

METAR-TAF

مطار :

مطار رأس الخيمة الدولي

رأس الخيمة, الإمارات العربية المتحدة

دائرة عرض: 25-37N, خط طول: 055-56E, ارتفاع: 31 متر

مراقبة الطقس الحالي

تاريخ ووقت الإصدار 52 دقيقة قبل الساعة 09:00UTC
ريح 13 عقدة من الغرب
درجة الحرارة 40°درجة مئوية
الرطوبة 40%
ضغط 999 hPa
الرؤية 10 كم أو أكثر
الغيوم لا تقل 1500 م ولا وجود لمزنة ركامية السحاب الأسود

METAR: OMRK 140900Z 27013KT CAVOK 40/24 Q0998 A2949

زمن: 13:52 (09:52 UTC)

توقعات

تاريخ ووقت الإصدار 4ساعات و 52 دقيقة قبل الساعة 05:00UTC
التوقعات صالحة من14 الساعة 06 UTC إلى 15 الساعة 12 UTC
ريح 8 عقدة من الجنوب الغربي
الرؤية: 8000 متر
أصبح
من 14 الساعة 06 UTC إلى 14 الساعة 08 UTC
ريح 13 عقدة من الغرب
أصبح
من 14 الساعة 15 UTC إلى 14 الساعة 17 UTC
ريح 2 عقدةمن اتجاهات متغيرة
أصبح
من 15 الساعة 07 UTC إلى 15 الساعة 09 UTC
ريح 12 عقدة من الشمال/الشمال الغربي

TAF: OMRK 140500Z 1406/1512 22008KT 8000 NSC BECMG 1406/1408 28013KT BECMG 1415/1417 VRB02KT BECMG 1507/1509 33012KT

أرصاد الطقس والتوقعات من أكثر من 4000 مطار (تقارير الطقس للمطار METAR والتنبؤ بالطقس بالمطارTAF).

المحطات المتاحة هي النقط الصفراء والحمراء على الخريطة.

حرك المؤشر فوق النقطة لمعرفة اسم المحطة.

ثم انقر لمعرفة أرصاد وتوقعات الطقس.

لتغيير الخارطة: اضغط على الأزرار الخضراء مع رمز الصليب الأسود للتكبير. على الزر الأخضر مع شرطة للتصغير، أو على الأسهم الخضراء للخرائط المجاورة.


METAR-TAF: